sensor_id;sensor_type;location;lat;lon;timestamp;P1;durP1;ratioP1;P2;durP2;ratioP2
61038;SDS011;46919;45.816;3.104;2023-04-03T00:01:09;8.05;;;6.20;;
61038;SDS011;46919;45.816;3.104;2023-04-03T00:03:35;7.35;;;5.97;;
61038;SDS011;46919;45.816;3.104;2023-04-03T00:06:02;7.75;;;6.20;;
61038;SDS011;46919;45.816;3.104;2023-04-03T00:08:28;5.88;;;5.28;;
61038;SDS011;46919;45.816;3.104;2023-04-03T00:10:55;8.30;;;5.70;;
61038;SDS011;46919;45.816;3.104;2023-04-03T00:13:21;7.25;;;5.53;;
61038;SDS011;46919;45.816;3.104;2023-04-03T00:15:47;5.25;;;4.63;;
61038;SDS011;46919;45.816;3.104;2023-04-03T00:18:12;5.75;;;5.05;;
61038;SDS011;46919;45.816;3.104;2023-04-03T00:20:37;5.82;;;4.60;;
61038;SDS011;46919;45.816;3.104;2023-04-03T00:23:03;7.20;;;5.63;;
61038;SDS011;46919;45.816;3.104;2023-04-03T00:25:28;7.13;;;5.50;;
61038;SDS011;46919;45.816;3.104;2023-04-03T00:27:54;8.65;;;6.05;;
61038;SDS011;46919;45.816;3.104;2023-04-03T00:30:20;6.88;;;5.47;;
61038;SDS011;46919;45.816;3.104;2023-04-03T00:32:49;7.30;;;5.97;;
61038;SDS011;46919;45.816;3.104;2023-04-03T00:35:16;8.80;;;6.25;;
61038;SDS011;46919;45.816;3.104;2023-04-03T00:37:42;8.45;;;5.75;;
61038;SDS011;46919;45.816;3.104;2023-04-03T00:40:08;8.18;;;5.72;;
61038;SDS011;46919;45.816;3.104;2023-04-03T00:42:39;7.38;;;5.78;;
61038;SDS011;46919;45.816;3.104;2023-04-03T00:47:31;9.10;;;6.00;;
61038;SDS011;46919;45.816;3.104;2023-04-03T00:49:57;7.80;;;5.63;;
61038;SDS011;46919;45.816;3.104;2023-04-03T00:52:25;7.57;;;5.97;;
61038;SDS011;46919;45.816;3.104;2023-04-03T00:54:54;8.02;;;5.75;;
61038;SDS011;46919;45.816;3.104;2023-04-03T00:57:24;7.88;;;5.32;;
61038;SDS011;46919;45.816;3.104;2023-04-03T00:59:51;6.43;;;5.13;;
61038;SDS011;46919;45.816;3.104;2023-04-03T01:02:21;8.10;;;5.80;;
61038;SDS011;46919;45.816;3.104;2023-04-03T01:04:47;8.38;;;5.93;;
61038;SDS011;46919;45.816;3.104;2023-04-03T01:07:16;9.48;;;6.50;;
61038;SDS011;46919;45.816;3.104;2023-04-03T01:09:45;10.70;;;6.50;;
61038;SDS011;46919;45.816;3.104;2023-04-03T01:17:24;12.70;;;7.53;;
61038;SDS011;46919;45.816;3.104;2023-04-03T01:25:35;14.77;;;8.95;;
61038;SDS011;46919;45.816;3.104;2023-04-03T01:28:06;15.50;;;8.65;;
61038;SDS011;46919;45.816;3.104;2023-04-03T01:30:35;12.60;;;8.65;;
61038;SDS011;46919;45.816;3.104;2023-04-03T01:33:08;12.85;;;8.77;;
61038;SDS011;46919;45.816;3.104;2023-04-03T01:35:33;13.43;;;8.68;;
61038;SDS011;46919;45.816;3.104;2023-04-03T01:37:58;16.10;;;9.85;;
61038;SDS011;46919;45.816;3.104;2023-04-03T01:40:24;15.68;;;9.07;;
61038;SDS011;46919;45.816;3.104;2023-04-03T01:42:50;15.38;;;9.40;;
61038;SDS011;46919;45.816;3.104;2023-04-03T01:45:15;12.93;;;9.10;;
61038;SDS011;46919;45.816;3.104;2023-04-03T01:47:41;12.35;;;8.52;;
61038;SDS011;46919;45.816;3.104;2023-04-03T01:50:06;14.10;;;8.35;;
61038;SDS011;46919;45.816;3.104;2023-04-03T01:52:32;13.50;;;8.80;;
61038;SDS011;46919;45.816;3.104;2023-04-03T01:54:57;12.75;;;8.50;;
61038;SDS011;46919;45.816;3.104;2023-04-03T01:57:23;12.65;;;8.13;;
61038;SDS011;46919;45.816;3.104;2023-04-03T01:59:48;13.07;;;8.30;;
61038;SDS011;46919;45.816;3.104;2023-04-03T02:02:14;11.27;;;7.60;;
61038;SDS011;46919;45.816;3.104;2023-04-03T02:04:40;12.63;;;8.23;;
61038;SDS011;46919;45.816;3.104;2023-04-03T02:07:05;15.75;;;7.63;;
61038;SDS011;46919;45.816;3.104;2023-04-03T02:09:31;9.65;;;6.45;;
61038;SDS011;46919;45.816;3.104;2023-04-03T02:11:56;9.57;;;6.30;;
61038;SDS011;46919;45.816;3.104;2023-04-03T02:14:22;8.93;;;6.13;;
61038;SDS011;46919;45.816;3.104;2023-04-03T02:16:48;8.57;;;6.10;;
61038;SDS011;46919;45.816;3.104;2023-04-03T02:19:14;8.82;;;5.65;;
61038;SDS011;46919;45.816;3.104;2023-04-03T02:21:40;7.78;;;5.82;;
61038;SDS011;46919;45.816;3.104;2023-04-03T02:24:06;7.63;;;5.32;;
61038;SDS011;46919;45.816;3.104;2023-04-03T02:26:31;6.97;;;5.13;;
61038;SDS011;46919;45.816;3.104;2023-04-03T02:28:56;6.80;;;4.97;;
61038;SDS011;46919;45.816;3.104;2023-04-03T02:31:22;6.70;;;4.68;;
61038;SDS011;46919;45.816;3.104;2023-04-03T02:33:49;6.75;;;4.55;;
61038;SDS011;46919;45.816;3.104;2023-04-03T02:36:14;5.68;;;3.75;;
61038;SDS011;46919;45.816;3.104;2023-04-03T02:38:39;5.88;;;3.72;;
61038;SDS011;46919;45.816;3.104;2023-04-03T02:41:06;4.88;;;3.50;;
61038;SDS011;46919;45.816;3.104;2023-04-03T02:43:33;5.18;;;3.55;;
61038;SDS011;46919;45.816;3.104;2023-04-03T02:45:59;5.03;;;3.35;;
61038;SDS011;46919;45.816;3.104;2023-04-03T02:48:24;3.90;;;3.00;;
61038;SDS011;46919;45.816;3.104;2023-04-03T02:50:50;4.13;;;2.88;;
61038;SDS011;46919;45.816;3.104;2023-04-03T02:53:16;3.72;;;2.45;;
61038;SDS011;46919;45.816;3.104;2023-04-03T02:55:42;3.95;;;2.55;;
61038;SDS011;46919;45.816;3.104;2023-04-03T02:58:08;3.38;;;2.00;;
61038;SDS011;46919;45.816;3.104;2023-04-03T03:00:34;2.45;;;2.00;;
61038;SDS011;46919;45.816;3.104;2023-04-03T03:02:59;3.40;;;1.50;;
61038;SDS011;46919;45.816;3.104;2023-04-03T03:05:25;2.55;;;1.77;;
61038;SDS011;46919;45.816;3.104;2023-04-03T03:07:52;2.97;;;1.88;;
61038;SDS011;46919;45.816;3.104;2023-04-03T03:10:18;2.03;;;1.40;;
61038;SDS011;46919;45.816;3.104;2023-04-03T03:12:43;1.67;;;1.38;;
61038;SDS011;46919;45.816;3.104;2023-04-03T03:15:09;3.50;;;1.73;;
61038;SDS011;46919;45.816;3.104;2023-04-03T03:17:35;3.22;;;2.17;;
61038;SDS011;46919;45.816;3.104;2023-04-03T03:20:01;2.85;;;1.88;;
61038;SDS011;46919;45.816;3.104;2023-04-03T03:22:27;2.42;;;2.00;;
61038;SDS011;46919;45.816;3.104;2023-04-03T03:24:53;4.35;;;2.20;;
61038;SDS011;46919;45.816;3.104;2023-04-03T03:27:19;2.95;;;2.25;;
61038;SDS011;46919;45.816;3.104;2023-04-03T03:29:45;2.85;;;2.20;;
61038;SDS011;46919;45.816;3.104;2023-04-03T03:32:11;3.53;;;2.03;;
61038;SDS011;46919;45.816;3.104;2023-04-03T03:34:36;3.20;;;2.10;;
61038;SDS011;46919;45.816;3.104;2023-04-03T03:37:02;4.30;;;2.42;;
61038;SDS011;46919;45.816;3.104;2023-04-03T03:39:27;3.63;;;2.30;;
61038;SDS011;46919;45.816;3.104;2023-04-03T03:41:53;3.10;;;2.15;;
61038;SDS011;46919;45.816;3.104;2023-04-03T03:44:18;3.22;;;2.47;;
61038;SDS011;46919;45.816;3.104;2023-04-03T03:46:44;3.70;;;2.47;;
61038;SDS011;46919;45.816;3.104;2023-04-03T03:49:10;3.25;;;2.40;;
61038;SDS011;46919;45.816;3.104;2023-04-03T03:51:36;3.28;;;2.30;;
61038;SDS011;46919;45.816;3.104;2023-04-03T03:54:02;4.80;;;2.53;;
61038;SDS011;46919;45.816;3.104;2023-04-03T03:56:28;4.28;;;2.72;;
61038;SDS011;46919;45.816;3.104;2023-04-03T03:58:53;4.60;;;2.60;;
61038;SDS011;46919;45.816;3.104;2023-04-03T04:01:20;3.38;;;2.40;;
61038;SDS011;46919;45.816;3.104;2023-04-03T04:03:45;3.80;;;2.72;;
61038;SDS011;46919;45.816;3.104;2023-04-03T04:06:10;4.90;;;2.83;;
61038;SDS011;46919;45.816;3.104;2023-04-03T04:08:36;4.13;;;2.40;;
61038;SDS011;46919;45.816;3.104;2023-04-03T04:11:01;3.83;;;2.40;;
61038;SDS011;46919;45.816;3.104;2023-04-03T04:13:27;5.07;;;2.85;;
61038;SDS011;46919;45.816;3.104;2023-04-03T04:15:52;3.97;;;2.45;;
61038;SDS011;46919;45.816;3.104;2023-04-03T04:18:18;3.95;;;2.60;;
61038;SDS011;46919;45.816;3.104;2023-04-03T04:20:45;4.63;;;2.58;;
61038;SDS011;46919;45.816;3.104;2023-04-03T04:23:11;4.20;;;2.65;;
61038;SDS011;46919;45.816;3.104;2023-04-03T04:25:36;3.88;;;2.72;;
61038;SDS011;46919;45.816;3.104;2023-04-03T04:28:01;4.35;;;2.50;;
61038;SDS011;46919;45.816;3.104;2023-04-03T04:30:27;3.90;;;2.65;;
61038;SDS011;46919;45.816;3.104;2023-04-03T04:32:52;4.88;;;2.97;;
61038;SDS011;46919;45.816;3.104;2023-04-03T04:35:17;5.50;;;2.60;;
61038;SDS011;46919;45.816;3.104;2023-04-03T04:37:43;4.60;;;2.92;;
61038;SDS011;46919;45.816;3.104;2023-04-03T04:40:08;4.75;;;2.60;;
61038;SDS011;46919;45.816;3.104;2023-04-03T04:42:34;4.65;;;3.20;;
61038;SDS011;46919;45.816;3.104;2023-04-03T04:45:00;5.80;;;2.40;;
61038;SDS011;46919;45.816;3.104;2023-04-03T04:47:25;4.15;;;2.90;;
61038;SDS011;46919;45.816;3.104;2023-04-03T04:49:54;3.90;;;2.72;;
61038;SDS011;46919;45.816;3.104;2023-04-03T04:52:20;4.18;;;2.83;;
61038;SDS011;46919;45.816;3.104;2023-04-03T04:54:45;3.60;;;2.40;;
61038;SDS011;46919;45.816;3.104;2023-04-03T04:57:11;4.80;;;3.00;;
61038;SDS011;46919;45.816;3.104;2023-04-03T04:59:36;5.53;;;3.05;;
61038;SDS011;46919;45.816;3.104;2023-04-03T05:02:02;3.65;;;2.28;;
61038;SDS011;46919;45.816;3.104;2023-04-03T05:04:27;6.00;;;2.13;;
61038;SDS011;46919;45.816;3.104;2023-04-03T05:06:53;4.45;;;2.65;;
61038;SDS011;46919;45.816;3.104;2023-04-03T05:09:18;4.22;;;2.60;;
61038;SDS011;46919;45.816;3.104;2023-04-03T05:11:45;2.28;;;1.85;;
61038;SDS011;46919;45.816;3.104;2023-04-03T05:14:11;3.92;;;2.47;;
61038;SDS011;46919;45.816;3.104;2023-04-03T05:16:36;3.17;;;2.05;;
61038;SDS011;46919;45.816;3.104;2023-04-03T05:19:02;3.50;;;2.40;;
61038;SDS011;46919;45.816;3.104;2023-04-03T05:21:28;3.63;;;2.42;;
61038;SDS011;46919;45.816;3.104;2023-04-03T05:23:57;5.68;;;3.28;;
61038;SDS011;46919;45.816;3.104;2023-04-03T05:26:24;4.15;;;2.75;;
61038;SDS011;46919;45.816;3.104;2023-04-03T05:28:50;3.03;;;1.90;;
61038;SDS011;46919;45.816;3.104;2023-04-03T05:31:16;2.70;;;1.70;;
61038;SDS011;46919;45.816;3.104;2023-04-03T05:33:41;2.72;;;1.75;;
61038;SDS011;46919;45.816;3.104;2023-04-03T05:36:07;2.20;;;1.50;;
61038;SDS011;46919;45.816;3.104;2023-04-03T05:38:33;2.30;;;1.70;;
61038;SDS011;46919;45.816;3.104;2023-04-03T05:40:58;3.03;;;2.15;;
61038;SDS011;46919;45.816;3.104;2023-04-03T05:43:24;3.67;;;2.05;;
61038;SDS011;46919;45.816;3.104;2023-04-03T05:45:50;3.70;;;2.42;;
61038;SDS011;46919;45.816;3.104;2023-04-03T05:48:16;3.78;;;2.63;;
61038;SDS011;46919;45.816;3.104;2023-04-03T05:50:42;4.47;;;2.50;;
61038;SDS011;46919;45.816;3.104;2023-04-03T05:53:12;3.95;;;2.38;;
61038;SDS011;46919;45.816;3.104;2023-04-03T05:55:42;4.63;;;2.67;;
61038;SDS011;46919;45.816;3.104;2023-04-03T05:58:08;5.03;;;3.22;;
61038;SDS011;46919;45.816;3.104;2023-04-03T06:00:33;4.50;;;3.30;;
61038;SDS011;46919;45.816;3.104;2023-04-03T06:02:59;5.75;;;3.80;;
61038;SDS011;46919;45.816;3.104;2023-04-03T06:05:24;5.88;;;3.55;;
61038;SDS011;46919;45.816;3.104;2023-04-03T06:07:50;5.82;;;3.00;;
61038;SDS011;46919;45.816;3.104;2023-04-03T06:10:15;6.43;;;3.20;;
61038;SDS011;46919;45.816;3.104;2023-04-03T06:12:41;8.00;;;4.00;;
61038;SDS011;46919;45.816;3.104;2023-04-03T06:15:07;6.32;;;4.13;;
61038;SDS011;46919;45.816;3.104;2023-04-03T06:17:34;5.30;;;3.83;;
61038;SDS011;46919;45.816;3.104;2023-04-03T06:20:01;6.30;;;3.58;;
61038;SDS011;46919;45.816;3.104;2023-04-03T06:22:26;5.13;;;3.60;;
61038;SDS011;46919;45.816;3.104;2023-04-03T06:24:54;6.05;;;4.15;;
61038;SDS011;46919;45.816;3.104;2023-04-03T06:27:20;8.45;;;4.78;;
61038;SDS011;46919;45.816;3.104;2023-04-03T06:29:45;6.07;;;3.88;;
61038;SDS011;46919;45.816;3.104;2023-04-03T06:32:11;7.45;;;4.10;;
61038;SDS011;46919;45.816;3.104;2023-04-03T06:34:36;6.40;;;4.68;;
61038;SDS011;46919;45.816;3.104;2023-04-03T06:37:02;5.43;;;3.92;;
61038;SDS011;46919;45.816;3.104;2023-04-03T06:39:27;6.03;;;4.00;;
61038;SDS011;46919;45.816;3.104;2023-04-03T06:41:53;6.15;;;4.15;;
61038;SDS011;46919;45.816;3.104;2023-04-03T06:44:18;6.47;;;4.47;;
61038;SDS011;46919;45.816;3.104;2023-04-03T06:46:44;6.22;;;3.42;;
61038;SDS011;46919;45.816;3.104;2023-04-03T06:49:11;6.28;;;3.95;;
61038;SDS011;46919;45.816;3.104;2023-04-03T06:51:36;6.03;;;4.05;;
61038;SDS011;46919;45.816;3.104;2023-04-03T06:54:03;6.65;;;3.63;;
61038;SDS011;46919;45.816;3.104;2023-04-03T06:56:30;5.15;;;3.97;;
61038;SDS011;46919;45.816;3.104;2023-04-03T06:58:56;6.97;;;4.18;;
61038;SDS011;46919;45.816;3.104;2023-04-03T07:01:26;7.70;;;4.43;;
61038;SDS011;46919;45.816;3.104;2023-04-03T07:03:53;6.70;;;4.25;;
61038;SDS011;46919;45.816;3.104;2023-04-03T07:06:18;6.03;;;3.78;;
61038;SDS011;46919;45.816;3.104;2023-04-03T07:08:44;5.43;;;3.55;;
61038;SDS011;46919;45.816;3.104;2023-04-03T07:11:10;4.78;;;3.40;;
61038;SDS011;46919;45.816;3.104;2023-04-03T07:13:36;6.57;;;4.00;;
61038;SDS011;46919;45.816;3.104;2023-04-03T07:16:02;6.68;;;3.70;;
61038;SDS011;46919;45.816;3.104;2023-04-03T07:18:30;7.05;;;4.18;;
61038;SDS011;46919;45.816;3.104;2023-04-03T07:20:55;5.07;;;3.70;;
61038;SDS011;46919;45.816;3.104;2023-04-03T07:23:21;5.45;;;4.03;;
61038;SDS011;46919;45.816;3.104;2023-04-03T07:25:47;6.90;;;4.57;;
61038;SDS011;46919;45.816;3.104;2023-04-03T07:28:14;7.93;;;4.90;;
61038;SDS011;46919;45.816;3.104;2023-04-03T07:30:44;8.30;;;5.10;;
61038;SDS011;46919;45.816;3.104;2023-04-03T07:33:11;8.90;;;5.43;;
61038;SDS011;46919;45.816;3.104;2023-04-03T07:35:38;6.47;;;4.63;;
61038;SDS011;46919;45.816;3.104;2023-04-03T07:38:04;6.75;;;5.03;;
61038;SDS011;46919;45.816;3.104;2023-04-03T07:40:30;7.97;;;5.35;;
61038;SDS011;46919;45.816;3.104;2023-04-03T07:42:56;9.50;;;5.35;;
61038;SDS011;46919;45.816;3.104;2023-04-03T07:45:21;9.27;;;5.65;;
61038;SDS011;46919;45.816;3.104;2023-04-03T07:47:48;7.93;;;5.68;;
61038;SDS011;46919;45.816;3.104;2023-04-03T07:50:13;8.02;;;5.50;;
61038;SDS011;46919;45.816;3.104;2023-04-03T07:52:39;6.53;;;4.75;;
61038;SDS011;46919;45.816;3.104;2023-04-03T07:55:05;6.78;;;4.85;;
61038;SDS011;46919;45.816;3.104;2023-04-03T07:57:31;7.93;;;4.50;;
61038;SDS011;46919;45.816;3.104;2023-04-03T07:59:56;7.80;;;4.57;;
61038;SDS011;46919;45.816;3.104;2023-04-03T08:02:22;7.43;;;5.07;;
61038;SDS011;46919;45.816;3.104;2023-04-03T08:04:47;9.77;;;6.25;;
61038;SDS011;46919;45.816;3.104;2023-04-03T08:07:12;7.40;;;5.65;;
61038;SDS011;46919;45.816;3.104;2023-04-03T08:09:38;7.30;;;5.05;;
61038;SDS011;46919;45.816;3.104;2023-04-03T08:12:03;7.55;;;4.88;;
61038;SDS011;46919;45.816;3.104;2023-04-03T08:14:30;8.70;;;5.13;;
61038;SDS011;46919;45.816;3.104;2023-04-03T08:17:01;8.95;;;6.00;;
61038;SDS011;46919;45.816;3.104;2023-04-03T08:19:29;9.02;;;6.03;;
61038;SDS011;46919;45.816;3.104;2023-04-03T08:21:55;8.43;;;5.97;;
61038;SDS011;46919;45.816;3.104;2023-04-03T08:24:23;9.75;;;6.72;;
61038;SDS011;46919;45.816;3.104;2023-04-03T08:26:49;10.05;;;7.50;;
61038;SDS011;46919;45.816;3.104;2023-04-03T08:29:15;13.38;;;8.07;;
61038;SDS011;46919;45.816;3.104;2023-04-03T08:31:40;14.50;;;8.63;;
61038;SDS011;46919;45.816;3.104;2023-04-03T08:34:05;11.93;;;7.30;;
61038;SDS011;46919;45.816;3.104;2023-04-03T08:36:31;11.20;;;7.22;;
61038;SDS011;46919;45.816;3.104;2023-04-03T08:38:57;12.02;;;7.70;;
61038;SDS011;46919;45.816;3.104;2023-04-03T08:41:29;10.85;;;6.93;;
61038;SDS011;46919;45.816;3.104;2023-04-03T08:47:09;11.85;;;7.57;;
61038;SDS011;46919;45.816;3.104;2023-04-03T08:49:50;12.23;;;7.50;;
61038;SDS011;46919;45.816;3.104;2023-04-03T08:52:20;12.73;;;7.60;;
61038;SDS011;46919;45.816;3.104;2023-04-03T08:55:11;14.32;;;8.02;;
61038;SDS011;46919;45.816;3.104;2023-04-03T08:57:46;13.23;;;8.10;;
61038;SDS011;46919;45.816;3.104;2023-04-03T09:00:21;12.77;;;7.68;;
61038;SDS011;46919;45.816;3.104;2023-04-03T09:02:49;10.13;;;6.72;;
61038;SDS011;46919;45.816;3.104;2023-04-03T09:05:24;10.88;;;7.25;;
61038;SDS011;46919;45.816;3.104;2023-04-03T09:08:12;11.75;;;7.70;;
61038;SDS011;46919;45.816;3.104;2023-04-03T09:14:12;9.75;;;6.85;;
61038;SDS011;46919;45.816;3.104;2023-04-03T09:16:49;10.02;;;6.57;;
61038;SDS011;46919;45.816;3.104;2023-04-03T09:22:31;11.90;;;8.30;;
61038;SDS011;46919;45.816;3.104;2023-04-03T09:24:55;11.85;;;7.45;;
61038;SDS011;46919;45.816;3.104;2023-04-03T09:27:24;11.65;;;7.13;;
61038;SDS011;46919;45.816;3.104;2023-04-03T09:29:49;12.57;;;8.15;;
61038;SDS011;46919;45.816;3.104;2023-04-03T09:32:33;12.05;;;7.63;;
61038;SDS011;46919;45.816;3.104;2023-04-03T09:35:04;12.68;;;7.40;;
61038;SDS011;46919;45.816;3.104;2023-04-03T09:37:43;11.13;;;7.07;;
61038;SDS011;46919;45.816;3.104;2023-04-03T09:42:58;8.48;;;5.63;;
61038;SDS011;46919;45.816;3.104;2023-04-03T09:45:33;9.40;;;5.43;;
61038;SDS011;46919;45.816;3.104;2023-04-03T09:50:37;8.43;;;6.05;;
61038;SDS011;46919;45.816;3.104;2023-04-03T09:53:07;9.57;;;6.38;;
61038;SDS011;46919;45.816;3.104;2023-04-03T09:55:50;10.75;;;7.10;;
61038;SDS011;46919;45.816;3.104;2023-04-03T09:58:26;8.88;;;6.25;;
61038;SDS011;46919;45.816;3.104;2023-04-03T10:00:58;10.50;;;7.15;;
61038;SDS011;46919;45.816;3.104;2023-04-03T10:03:35;12.13;;;7.35;;
61038;SDS011;46919;45.816;3.104;2023-04-03T10:06:04;13.02;;;7.88;;
61038;SDS011;46919;45.816;3.104;2023-04-03T10:08:58;11.32;;;8.00;;
61038;SDS011;46919;45.816;3.104;2023-04-03T10:11:26;12.30;;;8.10;;
61038;SDS011;46919;45.816;3.104;2023-04-03T10:13:52;11.25;;;8.23;;
61038;SDS011;46919;45.816;3.104;2023-04-03T10:16:25;14.55;;;9.07;;
61038;SDS011;46919;45.816;3.104;2023-04-03T10:21:32;12.98;;;9.07;;
61038;SDS011;46919;45.816;3.104;2023-04-03T10:27:02;13.02;;;8.05;;
61038;SDS011;46919;45.816;3.104;2023-04-03T10:30:04;14.30;;;9.35;;
61038;SDS011;46919;45.816;3.104;2023-04-03T10:33:08;12.47;;;8.73;;
61038;SDS011;46919;45.816;3.104;2023-04-03T10:35:43;13.43;;;9.10;;
61038;SDS011;46919;45.816;3.104;2023-04-03T10:46:36;16.95;;;11.07;;
61038;SDS011;46919;45.816;3.104;2023-04-03T10:51:53;19.77;;;12.32;;
61038;SDS011;46919;45.816;3.104;2023-04-03T10:54:39;20.65;;;12.05;;
61038;SDS011;46919;45.816;3.104;2023-04-03T10:57:09;21.23;;;12.85;;
61038;SDS011;46919;45.816;3.104;2023-04-03T10:59:53;21.02;;;13.70;;
61038;SDS011;46919;45.816;3.104;2023-04-03T11:04:58;23.58;;;13.95;;
61038;SDS011;46919;45.816;3.104;2023-04-03T11:07:28;20.48;;;12.70;;
61038;SDS011;46919;45.816;3.104;2023-04-03T11:10:44;23.40;;;13.38;;
61038;SDS011;46919;45.816;3.104;2023-04-03T11:12:51;18.75;;;11.95;;
61038;SDS011;46919;45.816;3.104;2023-04-03T11:15:21;20.85;;;13.65;;
61038;SDS011;46919;45.816;3.104;2023-04-03T11:17:54;19.70;;;12.85;;
61038;SDS011;46919;45.816;3.104;2023-04-03T11:20:27;23.00;;;14.18;;
61038;SDS011;46919;45.816;3.104;2023-04-03T11:23:09;21.02;;;13.48;;
61038;SDS011;46919;45.816;3.104;2023-04-03T11:25:46;23.88;;;13.57;;
61038;SDS011;46919;45.816;3.104;2023-04-03T11:28:17;22.13;;;13.27;;
61038;SDS011;46919;45.816;3.104;2023-04-03T11:36:31;20.92;;;14.18;;
61038;SDS011;46919;45.816;3.104;2023-04-03T11:39:18;18.98;;;13.07;;
61038;SDS011;46919;45.816;3.104;2023-04-03T11:41:48;21.48;;;13.45;;
61038;SDS011;46919;45.816;3.104;2023-04-03T11:44:30;19.92;;;13.40;;
61038;SDS011;46919;45.816;3.104;2023-04-03T11:47:02;18.40;;;12.52;;
61038;SDS011;46919;45.816;3.104;2023-04-03T11:57:50;19.05;;;11.38;;
61038;SDS011;46919;45.816;3.104;2023-04-03T12:05:51;15.50;;;9.55;;
61038;SDS011;46919;45.816;3.104;2023-04-03T12:13:42;13.57;;;8.30;;
61038;SDS011;46919;45.816;3.104;2023-04-03T12:16:33;12.95;;;8.98;;
61038;SDS011;46919;45.816;3.104;2023-04-03T12:26:45;14.30;;;9.27;;
61038;SDS011;46919;45.816;3.104;2023-04-03T12:29:27;14.05;;;8.90;;
61038;SDS011;46919;45.816;3.104;2023-04-03T12:42:47;11.20;;;8.10;;
61038;SDS011;46919;45.816;3.104;2023-04-03T12:45:21;12.85;;;9.95;;
61038;SDS011;46919;45.816;3.104;2023-04-03T12:47:49;15.75;;;10.18;;
61038;SDS011;46919;45.816;3.104;2023-04-03T12:50:21;14.57;;;9.70;;
61038;SDS011;46919;45.816;3.104;2023-04-03T12:52:51;12.35;;;8.88;;
61038;SDS011;46919;45.816;3.104;2023-04-03T12:55:21;12.50;;;8.82;;
61038;SDS011;46919;45.816;3.104;2023-04-03T12:57:47;16.80;;;10.30;;
61038;SDS011;46919;45.816;3.104;2023-04-03T13:00:46;14.80;;;9.20;;
61038;SDS011;46919;45.816;3.104;2023-04-03T13:03:18;13.63;;;9.80;;
61038;SDS011;46919;45.816;3.104;2023-04-03T13:05:49;12.38;;;8.73;;
61038;SDS011;46919;45.816;3.104;2023-04-03T13:08:21;13.68;;;10.18;;
61038;SDS011;46919;45.816;3.104;2023-04-03T13:11:09;12.30;;;9.63;;
61038;SDS011;46919;45.816;3.104;2023-04-03T13:13:36;12.35;;;9.43;;
61038;SDS011;46919;45.816;3.104;2023-04-03T13:16:10;13.60;;;9.70;;
61038;SDS011;46919;45.816;3.104;2023-04-03T13:21:13;13.30;;;9.98;;
61038;SDS011;46919;45.816;3.104;2023-04-03T13:23:42;14.43;;;9.88;;
61038;SDS011;46919;45.816;3.104;2023-04-03T13:26:11;16.13;;;10.93;;
61038;SDS011;46919;45.816;3.104;2023-04-03T13:28:38;14.82;;;11.30;;
61038;SDS011;46919;45.816;3.104;2023-04-03T13:36:19;13.65;;;10.10;;
61038;SDS011;46919;45.816;3.104;2023-04-03T13:38:57;12.82;;;10.05;;
61038;SDS011;46919;45.816;3.104;2023-04-03T13:41:28;12.55;;;9.43;;
61038;SDS011;46919;45.816;3.104;2023-04-03T13:44:14;11.80;;;9.15;;
61038;SDS011;46919;45.816;3.104;2023-04-03T13:46:45;12.18;;;8.35;;
61038;SDS011;46919;45.816;3.104;2023-04-03T13:51:43;10.57;;;8.40;;
61038;SDS011;46919;45.816;3.104;2023-04-03T13:54:19;8.40;;;7.10;;
61038;SDS011;46919;45.816;3.104;2023-04-03T13:56:52;9.75;;;7.60;;
61038;SDS011;46919;45.816;3.104;2023-04-03T13:59:22;8.13;;;6.40;;
61038;SDS011;46919;45.816;3.104;2023-04-03T14:04:28;9.95;;;7.32;;
61038;SDS011;46919;45.816;3.104;2023-04-03T14:07:09;8.48;;;6.47;;
61038;SDS011;46919;45.816;3.104;2023-04-03T14:09:38;9.68;;;7.53;;
61038;SDS011;46919;45.816;3.104;2023-04-03T14:12:06;10.02;;;7.75;;
61038;SDS011;46919;45.816;3.104;2023-04-03T14:14:35;10.48;;;7.88;;
61038;SDS011;46919;45.816;3.104;2023-04-03T14:17:03;9.88;;;6.95;;
61038;SDS011;46919;45.816;3.104;2023-04-03T14:19:38;9.07;;;6.57;;
61038;SDS011;46919;45.816;3.104;2023-04-03T14:22:13;8.80;;;6.97;;
61038;SDS011;46919;45.816;3.104;2023-04-03T14:24:43;9.55;;;7.10;;
61038;SDS011;46919;45.816;3.104;2023-04-03T14:27:17;8.68;;;5.32;;
61038;SDS011;46919;45.816;3.104;2023-04-03T14:29:45;7.22;;;5.47;;
61038;SDS011;46919;45.816;3.104;2023-04-03T14:32:12;5.40;;;4.70;;
61038;SDS011;46919;45.816;3.104;2023-04-03T14:34:39;8.32;;;6.15;;
61038;SDS011;46919;45.816;3.104;2023-04-03T14:37:08;6.50;;;5.38;;
61038;SDS011;46919;45.816;3.104;2023-04-03T14:39:35;5.68;;;5.00;;
61038;SDS011;46919;45.816;3.104;2023-04-03T14:42:01;6.40;;;5.13;;
61038;SDS011;46919;45.816;3.104;2023-04-03T14:44:26;6.20;;;5.40;;
61038;SDS011;46919;45.816;3.104;2023-04-03T14:46:52;7.47;;;6.13;;
61038;SDS011;46919;45.816;3.104;2023-04-03T14:49:19;5.70;;;5.15;;
61038;SDS011;46919;45.816;3.104;2023-04-03T14:51:46;5.35;;;4.45;;
61038;SDS011;46919;45.816;3.104;2023-04-03T14:54:16;5.65;;;4.85;;
61038;SDS011;46919;45.816;3.104;2023-04-03T14:56:46;6.45;;;5.20;;
61038;SDS011;46919;45.816;3.104;2023-04-03T14:59:12;6.32;;;5.60;;
61038;SDS011;46919;45.816;3.104;2023-04-03T15:01:39;6.20;;;5.35;;
61038;SDS011;46919;45.816;3.104;2023-04-03T15:04:09;5.65;;;5.05;;
61038;SDS011;46919;45.816;3.104;2023-04-03T15:06:36;7.05;;;5.47;;
61038;SDS011;46919;45.816;3.104;2023-04-03T15:09:02;5.93;;;5.10;;
61038;SDS011;46919;45.816;3.104;2023-04-03T15:11:28;6.93;;;5.57;;
61038;SDS011;46919;45.816;3.104;2023-04-03T15:13:53;7.47;;;5.57;;
61038;SDS011;46919;45.816;3.104;2023-04-03T15:16:19;7.25;;;5.47;;
61038;SDS011;46919;45.816;3.104;2023-04-03T15:18:45;6.05;;;4.97;;
61038;SDS011;46919;45.816;3.104;2023-04-03T15:21:12;5.35;;;4.85;;
61038;SDS011;46919;45.816;3.104;2023-04-03T15:23:38;5.22;;;4.55;;
61038;SDS011;46919;45.816;3.104;2023-04-03T15:26:03;6.68;;;5.60;;
61038;SDS011;46919;45.816;3.104;2023-04-03T15:28:31;7.28;;;5.13;;
61038;SDS011;46919;45.816;3.104;2023-04-03T15:30:58;6.03;;;5.13;;
61038;SDS011;46919;45.816;3.104;2023-04-03T15:33:24;6.20;;;5.20;;
61038;SDS011;46919;45.816;3.104;2023-04-03T15:35:50;6.05;;;5.28;;
61038;SDS011;46919;45.816;3.104;2023-04-03T15:38:16;7.22;;;5.85;;
61038;SDS011;46919;45.816;3.104;2023-04-03T15:40:41;6.85;;;5.55;;
61038;SDS011;46919;45.816;3.104;2023-04-03T15:43:07;8.98;;;6.45;;
61038;SDS011;46919;45.816;3.104;2023-04-03T15:45:33;9.73;;;6.20;;
61038;SDS011;46919;45.816;3.104;2023-04-03T15:48:01;7.85;;;6.00;;
61038;SDS011;46919;45.816;3.104;2023-04-03T15:50:28;8.32;;;6.28;;
61038;SDS011;46919;45.816;3.104;2023-04-03T15:52:53;6.82;;;5.93;;
61038;SDS011;46919;45.816;3.104;2023-04-03T15:55:22;7.50;;;5.60;;
61038;SDS011;46919;45.816;3.104;2023-04-03T15:57:49;6.80;;;5.60;;
61038;SDS011;46919;45.816;3.104;2023-04-03T16:00:16;7.78;;;5.82;;
61038;SDS011;46919;45.816;3.104;2023-04-03T16:02:42;6.68;;;5.88;;
61038;SDS011;46919;45.816;3.104;2023-04-03T16:05:10;7.10;;;5.93;;
61038;SDS011;46919;45.816;3.104;2023-04-03T16:07:37;8.00;;;6.35;;
61038;SDS011;46919;45.816;3.104;2023-04-03T16:10:04;8.52;;;6.60;;
61038;SDS011;46919;45.816;3.104;2023-04-03T16:12:30;7.78;;;6.13;;
61038;SDS011;46919;45.816;3.104;2023-04-03T16:14:56;7.28;;;6.00;;
61038;SDS011;46919;45.816;3.104;2023-04-03T16:17:21;9.27;;;6.80;;
61038;SDS011;46919;45.816;3.104;2023-04-03T16:19:47;8.77;;;6.68;;
61038;SDS011;46919;45.816;3.104;2023-04-03T16:22:12;8.77;;;7.10;;
61038;SDS011;46919;45.816;3.104;2023-04-03T16:24:38;11.35;;;6.78;;
61038;SDS011;46919;45.816;3.104;2023-04-03T16:27:04;9.15;;;7.38;;
61038;SDS011;46919;45.816;3.104;2023-04-03T16:29:29;8.82;;;6.32;;
61038;SDS011;46919;45.816;3.104;2023-04-03T16:31:54;9.57;;;6.68;;
61038;SDS011;46919;45.816;3.104;2023-04-03T16:34:21;8.38;;;5.97;;